sensor_id;sensor_type;location;lat;lon;timestamp;P1;durP1;ratioP1;P2;durP2;ratioP2
6414;SDS011;3240;48.790;9.210;2022-09-19T00:01:50;0.50;;;0.30;;
6414;SDS011;3240;48.790;9.210;2022-09-19T00:04:19;1.57;;;0.40;;
6414;SDS011;3240;48.790;9.210;2022-09-19T00:06:45;0.43;;;0.30;;
6414;SDS011;3240;48.790;9.210;2022-09-19T00:09:15;0.70;;;0.40;;
6414;SDS011;3240;48.790;9.210;2022-09-19T00:11:42;0.70;;;0.43;;
6414;SDS011;3240;48.790;9.210;2022-09-19T00:14:09;1.47;;;0.50;;
6414;SDS011;3240;48.790;9.210;2022-09-19T00:16:38;0.90;;;0.30;;
6414;SDS011;3240;48.790;9.210;2022-09-19T00:19:07;1.47;;;0.30;;
6414;SDS011;3240;48.790;9.210;2022-09-19T00:21:36;0.43;;;0.40;;
6414;SDS011;3240;48.790;9.210;2022-09-19T00:24:03;0.83;;;0.30;;
6414;SDS011;3240;48.790;9.210;2022-09-19T00:26:37;0.50;;;0.30;;
6414;SDS011;3240;48.790;9.210;2022-09-19T00:29:05;0.50;;;0.30;;
6414;SDS011;3240;48.790;9.210;2022-09-19T00:31:33;0.50;;;0.30;;
6414;SDS011;3240;48.790;9.210;2022-09-19T00:34:02;0.70;;;0.30;;
6414;SDS011;3240;48.790;9.210;2022-09-19T00:36:30;0.50;;;0.40;;
6414;SDS011;3240;48.790;9.210;2022-09-19T00:38:58;0.47;;;0.30;;
6414;SDS011;3240;48.790;9.210;2022-09-19T00:41:26;0.50;;;0.30;;
6414;SDS011;3240;48.790;9.210;2022-09-19T00:43:57;0.50;;;0.30;;
6414;SDS011;3240;48.790;9.210;2022-09-19T00:46:24;0.40;;;0.30;;
6414;SDS011;3240;48.790;9.210;2022-09-19T00:48:54;0.40;;;0.20;;
6414;SDS011;3240;48.790;9.210;2022-09-19T00:51:24;0.50;;;0.30;;
6414;SDS011;3240;48.790;9.210;2022-09-19T00:53:49;0.67;;;0.33;;
6414;SDS011;3240;48.790;9.210;2022-09-19T00:56:17;0.40;;;0.30;;
6414;SDS011;3240;48.790;9.210;2022-09-19T00:58:45;2.40;;;0.40;;
6414;SDS011;3240;48.790;9.210;2022-09-19T01:01:14;0.50;;;0.30;;
6414;SDS011;3240;48.790;9.210;2022-09-19T01:03:42;0.60;;;0.40;;
6414;SDS011;3240;48.790;9.210;2022-09-19T01:06:46;0.70;;;0.30;;
6414;SDS011;3240;48.790;9.210;2022-09-19T01:08:59;0.40;;;0.30;;
6414;SDS011;3240;48.790;9.210;2022-09-19T01:11:37;1.93;;;0.30;;
6414;SDS011;3240;48.790;9.210;2022-09-19T01:14:13;0.60;;;0.40;;
6414;SDS011;3240;48.790;9.210;2022-09-19T01:16:39;0.50;;;0.30;;
6414;SDS011;3240;48.790;9.210;2022-09-19T01:19:11;2.30;;;0.30;;
6414;SDS011;3240;48.790;9.210;2022-09-19T01:21:34;0.83;;;0.30;;
6414;SDS011;3240;48.790;9.210;2022-09-19T01:24:43;0.40;;;0.30;;
6414;SDS011;3240;48.790;9.210;2022-09-19T01:29:28;0.60;;;0.30;;
6414;SDS011;3240;48.790;9.210;2022-09-19T01:31:55;0.80;;;0.40;;
6414;SDS011;3240;48.790;9.210;2022-09-19T01:34:23;0.70;;;0.40;;
6414;SDS011;3240;48.790;9.210;2022-09-19T01:36:51;0.70;;;0.40;;
6414;SDS011;3240;48.790;9.210;2022-09-19T01:39:21;0.50;;;0.30;;
6414;SDS011;3240;48.790;9.210;2022-09-19T01:41:48;0.70;;;0.30;;
6414;SDS011;3240;48.790;9.210;2022-09-19T01:44:16;0.50;;;0.30;;
6414;SDS011;3240;48.790;9.210;2022-09-19T01:47:06;0.60;;;0.43;;
6414;SDS011;3240;48.790;9.210;2022-09-19T01:57:44;1.57;;;0.50;;
6414;SDS011;3240;48.790;9.210;2022-09-19T02:00:09;1.10;;;0.43;;
6414;SDS011;3240;48.790;9.210;2022-09-19T02:02:42;4.53;;;0.60;;
6414;SDS011;3240;48.790;9.210;2022-09-19T02:05:12;0.57;;;0.50;;
6414;SDS011;3240;48.790;9.210;2022-09-19T02:07:49;1.07;;;0.40;;
6414;SDS011;3240;48.790;9.210;2022-09-19T02:10:15;0.50;;;0.30;;
6414;SDS011;3240;48.790;9.210;2022-09-19T02:12:42;1.63;;;0.67;;
6414;SDS011;3240;48.790;9.210;2022-09-19T02:15:10;4.30;;;0.60;;
6414;SDS011;3240;48.790;9.210;2022-09-19T02:17:40;1.43;;;0.60;;
6414;SDS011;3240;48.790;9.210;2022-09-19T02:20:08;0.70;;;0.40;;
6414;SDS011;3240;48.790;9.210;2022-09-19T02:22:39;1.23;;;0.50;;
6414;SDS011;3240;48.790;9.210;2022-09-19T02:25:08;0.60;;;0.40;;
6414;SDS011;3240;48.790;9.210;2022-09-19T02:27:38;2.40;;;0.50;;
6414;SDS011;3240;48.790;9.210;2022-09-19T02:30:04;2.43;;;0.40;;
6414;SDS011;3240;48.790;9.210;2022-09-19T02:32:32;3.00;;;1.13;;
6414;SDS011;3240;48.790;9.210;2022-09-19T02:35:00;0.53;;;0.40;;
6414;SDS011;3240;48.790;9.210;2022-09-19T02:37:29;2.20;;;0.57;;
6414;SDS011;3240;48.790;9.210;2022-09-19T02:39:59;4.30;;;0.77;;
6414;SDS011;3240;48.790;9.210;2022-09-19T02:42:29;5.90;;;0.67;;
6414;SDS011;3240;48.790;9.210;2022-09-19T02:44:59;1.00;;;0.70;;
6414;SDS011;3240;48.790;9.210;2022-09-19T02:47:26;2.10;;;0.60;;
6414;SDS011;3240;48.790;9.210;2022-09-19T02:49:55;2.40;;;0.80;;
6414;SDS011;3240;48.790;9.210;2022-09-19T02:52:26;0.63;;;0.50;;
6414;SDS011;3240;48.790;9.210;2022-09-19T02:54:53;3.53;;;0.93;;
6414;SDS011;3240;48.790;9.210;2022-09-19T02:57:21;2.83;;;1.00;;
6414;SDS011;3240;48.790;9.210;2022-09-19T02:59:49;1.10;;;0.60;;
6414;SDS011;3240;48.790;9.210;2022-09-19T03:02:20;3.17;;;0.97;;
6414;SDS011;3240;48.790;9.210;2022-09-19T03:04:48;0.97;;;0.60;;
6414;SDS011;3240;48.790;9.210;2022-09-19T03:07:17;1.13;;;0.70;;
6414;SDS011;3240;48.790;9.210;2022-09-19T03:09:46;2.80;;;0.80;;
6414;SDS011;3240;48.790;9.210;2022-09-19T03:12:16;3.50;;;0.73;;
6414;SDS011;3240;48.790;9.210;2022-09-19T03:14:41;2.07;;;0.90;;
6414;SDS011;3240;48.790;9.210;2022-09-19T03:17:10;3.77;;;0.97;;
6414;SDS011;3240;48.790;9.210;2022-09-19T03:19:38;1.00;;;0.50;;
6414;SDS011;3240;48.790;9.210;2022-09-19T03:22:06;1.70;;;0.70;;
6414;SDS011;3240;48.790;9.210;2022-09-19T03:24:34;4.10;;;0.93;;
6414;SDS011;3240;48.790;9.210;2022-09-19T03:27:02;4.80;;;1.10;;
6414;SDS011;3240;48.790;9.210;2022-09-19T03:29:30;5.10;;;0.50;;
6414;SDS011;3240;48.790;9.210;2022-09-19T03:31:58;0.80;;;0.50;;
6414;SDS011;3240;48.790;9.210;2022-09-19T03:34:26;2.73;;;0.73;;
6414;SDS011;3240;48.790;9.210;2022-09-19T03:36:54;8.90;;;0.87;;
6414;SDS011;3240;48.790;9.210;2022-09-19T03:39:22;2.83;;;1.30;;
6414;SDS011;3240;48.790;9.210;2022-09-19T03:41:50;2.50;;;0.50;;
6414;SDS011;3240;48.790;9.210;2022-09-19T03:44:18;2.87;;;0.60;;
6414;SDS011;3240;48.790;9.210;2022-09-19T03:46:46;3.80;;;1.07;;
6414;SDS011;3240;48.790;9.210;2022-09-19T03:49:14;6.10;;;1.20;;
6414;SDS011;3240;48.790;9.210;2022-09-19T03:51:42;4.93;;;1.07;;
6414;SDS011;3240;48.790;9.210;2022-09-19T03:54:10;4.77;;;1.10;;
6414;SDS011;3240;48.790;9.210;2022-09-19T03:56:38;5.90;;;0.80;;
6414;SDS011;3240;48.790;9.210;2022-09-19T03:59:06;4.30;;;1.00;;
6414;SDS011;3240;48.790;9.210;2022-09-19T04:01:34;2.77;;;0.63;;
6414;SDS011;3240;48.790;9.210;2022-09-19T04:04:02;3.60;;;0.90;;
6414;SDS011;3240;48.790;9.210;2022-09-19T04:06:30;1.30;;;0.73;;
6414;SDS011;3240;48.790;9.210;2022-09-19T04:08:58;7.57;;;1.00;;
6414;SDS011;3240;48.790;9.210;2022-09-19T04:11:27;3.73;;;1.00;;
6414;SDS011;3240;48.790;9.210;2022-09-19T04:13:54;5.17;;;0.97;;
6414;SDS011;3240;48.790;9.210;2022-09-19T04:16:22;2.33;;;1.20;;
6414;SDS011;3240;48.790;9.210;2022-09-19T04:18:50;4.43;;;0.90;;
6414;SDS011;3240;48.790;9.210;2022-09-19T04:21:18;5.73;;;1.03;;
6414;SDS011;3240;48.790;9.210;2022-09-19T04:23:46;2.50;;;1.03;;
6414;SDS011;3240;48.790;9.210;2022-09-19T04:26:14;6.73;;;1.07;;
6414;SDS011;3240;48.790;9.210;2022-09-19T04:28:43;2.83;;;0.77;;
6414;SDS011;3240;48.790;9.210;2022-09-19T04:31:11;4.00;;;0.70;;
6414;SDS011;3240;48.790;9.210;2022-09-19T04:33:39;6.10;;;1.00;;
6414;SDS011;3240;48.790;9.210;2022-09-19T04:36:07;1.87;;;0.63;;
6414;SDS011;3240;48.790;9.210;2022-09-19T04:38:35;6.57;;;1.20;;
6414;SDS011;3240;48.790;9.210;2022-09-19T04:41:03;4.10;;;0.97;;
6414;SDS011;3240;48.790;9.210;2022-09-19T04:43:31;3.70;;;1.23;;
6414;SDS011;3240;48.790;9.210;2022-09-19T04:45:59;3.97;;;1.00;;
6414;SDS011;3240;48.790;9.210;2022-09-19T04:48:27;2.80;;;0.83;;
6414;SDS011;3240;48.790;9.210;2022-09-19T04:50:55;4.18;;;1.70;;
6414;SDS011;3240;48.790;9.210;2022-09-19T04:53:23;4.27;;;1.63;;
6414;SDS011;3240;48.790;9.210;2022-09-19T04:55:52;7.13;;;0.93;;
6414;SDS011;3240;48.790;9.210;2022-09-19T04:58:19;5.03;;;1.10;;
6414;SDS011;3240;48.790;9.210;2022-09-19T05:00:49;4.73;;;1.33;;
6414;SDS011;3240;48.790;9.210;2022-09-19T05:03:17;6.00;;;1.30;;
6414;SDS011;3240;48.790;9.210;2022-09-19T05:05:45;4.77;;;1.50;;
6414;SDS011;3240;48.790;9.210;2022-09-19T05:08:13;3.13;;;1.40;;
6414;SDS011;3240;48.790;9.210;2022-09-19T05:10:41;8.17;;;0.97;;
6414;SDS011;3240;48.790;9.210;2022-09-19T05:13:09;8.53;;;1.33;;
6414;SDS011;3240;48.790;9.210;2022-09-19T05:15:37;6.30;;;1.37;;
6414;SDS011;3240;48.790;9.210;2022-09-19T05:18:05;8.80;;;1.07;;
6414;SDS011;3240;48.790;9.210;2022-09-19T05:20:34;4.67;;;1.37;;
6414;SDS011;3240;48.790;9.210;2022-09-19T05:23:01;2.50;;;0.97;;
6414;SDS011;3240;48.790;9.210;2022-09-19T05:25:30;4.17;;;0.90;;
6414;SDS011;3240;48.790;9.210;2022-09-19T05:27:57;6.00;;;1.20;;
6414;SDS011;3240;48.790;9.210;2022-09-19T05:30:25;5.37;;;1.53;;
6414;SDS011;3240;48.790;9.210;2022-09-19T05:32:53;4.10;;;1.07;;
6414;SDS011;3240;48.790;9.210;2022-09-19T05:35:21;4.60;;;1.20;;
6414;SDS011;3240;48.790;9.210;2022-09-19T05:37:49;5.03;;;1.17;;
6414;SDS011;3240;48.790;9.210;2022-09-19T05:40:17;5.00;;;1.20;;
6414;SDS011;3240;48.790;9.210;2022-09-19T05:42:45;4.37;;;1.67;;
6414;SDS011;3240;48.790;9.210;2022-09-19T05:45:14;3.67;;;1.23;;
6414;SDS011;3240;48.790;9.210;2022-09-19T05:47:42;5.97;;;1.07;;
6414;SDS011;3240;48.790;9.210;2022-09-19T05:50:11;7.20;;;1.30;;
6414;SDS011;3240;48.790;9.210;2022-09-19T05:52:39;3.13;;;1.30;;
6414;SDS011;3240;48.790;9.210;2022-09-19T05:55:12;9.03;;;1.03;;
6414;SDS011;3240;48.790;9.210;2022-09-19T05:57:40;5.00;;;1.70;;
6414;SDS011;3240;48.790;9.210;2022-09-19T06:00:08;5.40;;;1.07;;
6414;SDS011;3240;48.790;9.210;2022-09-19T06:02:37;13.97;;;2.00;;
6414;SDS011;3240;48.790;9.210;2022-09-19T06:05:05;7.32;;;1.50;;
6414;SDS011;3240;48.790;9.210;2022-09-19T06:07:33;4.00;;;1.17;;
6414;SDS011;3240;48.790;9.210;2022-09-19T06:10:01;7.20;;;1.07;;
6414;SDS011;3240;48.790;9.210;2022-09-19T06:12:29;7.30;;;1.40;;
6414;SDS011;3240;48.790;9.210;2022-09-19T06:14:57;7.17;;;1.30;;
6414;SDS011;3240;48.790;9.210;2022-09-19T06:17:25;4.50;;;1.10;;
6414;SDS011;3240;48.790;9.210;2022-09-19T06:19:53;3.80;;;1.00;;
6414;SDS011;3240;48.790;9.210;2022-09-19T06:22:21;6.07;;;1.53;;
6414;SDS011;3240;48.790;9.210;2022-09-19T06:24:49;5.43;;;1.10;;
6414;SDS011;3240;48.790;9.210;2022-09-19T06:27:17;8.77;;;1.77;;
6414;SDS011;3240;48.790;9.210;2022-09-19T06:29:45;3.23;;;1.57;;
6414;SDS011;3240;48.790;9.210;2022-09-19T06:32:13;10.75;;;2.15;;
6414;SDS011;3240;48.790;9.210;2022-09-19T06:34:41;10.00;;;1.10;;
6414;SDS011;3240;48.790;9.210;2022-09-19T06:37:09;2.87;;;1.40;;
6414;SDS011;3240;48.790;9.210;2022-09-19T06:39:37;2.80;;;1.00;;
6414;SDS011;3240;48.790;9.210;2022-09-19T06:42:05;8.00;;;1.40;;
6414;SDS011;3240;48.790;9.210;2022-09-19T06:44:33;7.77;;;1.70;;
6414;SDS011;3240;48.790;9.210;2022-09-19T06:47:01;7.83;;;1.47;;
6414;SDS011;3240;48.790;9.210;2022-09-19T06:49:29;7.43;;;1.50;;
6414;SDS011;3240;48.790;9.210;2022-09-19T06:51:57;4.87;;;1.33;;
6414;SDS011;3240;48.790;9.210;2022-09-19T06:54:25;7.70;;;1.50;;
6414;SDS011;3240;48.790;9.210;2022-09-19T06:56:53;5.50;;;1.00;;
6414;SDS011;3240;48.790;9.210;2022-09-19T06:59:22;9.40;;;1.50;;
6414;SDS011;3240;48.790;9.210;2022-09-19T07:01:50;8.87;;;1.80;;
6414;SDS011;3240;48.790;9.210;2022-09-19T07:04:18;6.70;;;1.63;;
6414;SDS011;3240;48.790;9.210;2022-09-19T07:06:46;5.50;;;1.60;;
6414;SDS011;3240;48.790;9.210;2022-09-19T07:09:14;5.93;;;2.17;;
6414;SDS011;3240;48.790;9.210;2022-09-19T07:11:42;25.97;;;2.80;;
6414;SDS011;3240;48.790;9.210;2022-09-19T07:14:10;6.83;;;1.37;;
6414;SDS011;3240;48.790;9.210;2022-09-19T07:16:38;4.87;;;1.80;;
6414;SDS011;3240;48.790;9.210;2022-09-19T07:19:06;7.30;;;1.97;;
6414;SDS011;3240;48.790;9.210;2022-09-19T07:21:34;6.30;;;1.63;;
6414;SDS011;3240;48.790;9.210;2022-09-19T07:24:02;12.00;;;1.53;;
6414;SDS011;3240;48.790;9.210;2022-09-19T07:26:30;5.73;;;2.00;;
6414;SDS011;3240;48.790;9.210;2022-09-19T07:28:58;5.20;;;1.40;;
6414;SDS011;3240;48.790;9.210;2022-09-19T07:31:26;4.87;;;1.67;;
6414;SDS011;3240;48.790;9.210;2022-09-19T07:33:54;7.32;;;2.12;;
6414;SDS011;3240;48.790;9.210;2022-09-19T07:36:22;11.83;;;2.00;;
6414;SDS011;3240;48.790;9.210;2022-09-19T07:38:50;8.60;;;1.90;;
6414;SDS011;3240;48.790;9.210;2022-09-19T07:41:18;4.17;;;1.20;;
6414;SDS011;3240;48.790;9.210;2022-09-19T07:43:47;5.77;;;1.43;;
6414;SDS011;3240;48.790;9.210;2022-09-19T07:46:14;5.27;;;1.63;;
6414;SDS011;3240;48.790;9.210;2022-09-19T07:48:46;5.20;;;2.20;;
6414;SDS011;3240;48.790;9.210;2022-09-19T07:51:11;8.20;;;2.07;;
6414;SDS011;3240;48.790;9.210;2022-09-19T07:53:39;8.93;;;1.50;;
6414;SDS011;3240;48.790;9.210;2022-09-19T07:56:09;12.47;;;2.10;;
6414;SDS011;3240;48.790;9.210;2022-09-19T07:58:35;6.93;;;1.40;;
6414;SDS011;3240;48.790;9.210;2022-09-19T08:01:03;6.50;;;1.67;;
6414;SDS011;3240;48.790;9.210;2022-09-19T08:03:31;7.70;;;1.70;;
6414;SDS011;3240;48.790;9.210;2022-09-19T08:06:00;8.00;;;2.17;;
6414;SDS011;3240;48.790;9.210;2022-09-19T08:08:28;3.40;;;1.50;;
6414;SDS011;3240;48.790;9.210;2022-09-19T08:10:58;10.53;;;1.80;;
6414;SDS011;3240;48.790;9.210;2022-09-19T08:13:25;10.63;;;1.50;;
6414;SDS011;3240;48.790;9.210;2022-09-19T08:15:53;8.33;;;1.70;;
6414;SDS011;3240;48.790;9.210;2022-09-19T08:18:21;7.23;;;2.40;;
6414;SDS011;3240;48.790;9.210;2022-09-19T08:20:50;9.17;;;1.73;;
6414;SDS011;3240;48.790;9.210;2022-09-19T08:23:18;5.67;;;1.97;;
6414;SDS011;3240;48.790;9.210;2022-09-19T08:25:46;5.83;;;1.50;;
6414;SDS011;3240;48.790;9.210;2022-09-19T08:28:14;4.13;;;1.37;;
6414;SDS011;3240;48.790;9.210;2022-09-19T08:30:42;12.63;;;2.13;;
6414;SDS011;3240;48.790;9.210;2022-09-19T08:33:11;10.63;;;1.73;;
6414;SDS011;3240;48.790;9.210;2022-09-19T08:35:38;9.40;;;2.33;;
6414;SDS011;3240;48.790;9.210;2022-09-19T08:38:07;7.37;;;1.97;;
6414;SDS011;3240;48.790;9.210;2022-09-19T08:40:42;5.70;;;1.60;;
6414;SDS011;3240;48.790;9.210;2022-09-19T08:43:08;7.83;;;1.60;;
6414;SDS011;3240;48.790;9.210;2022-09-19T08:48:23;6.53;;;1.87;;
6414;SDS011;3240;48.790;9.210;2022-09-19T08:50:53;10.00;;;2.00;;
6414;SDS011;3240;48.790;9.210;2022-09-19T08:53:23;8.27;;;1.70;;
6414;SDS011;3240;48.790;9.210;2022-09-19T08:55:48;6.93;;;2.23;;
6414;SDS011;3240;48.790;9.210;2022-09-19T08:58:16;6.37;;;1.67;;
6414;SDS011;3240;48.790;9.210;2022-09-19T09:00:44;4.10;;;1.90;;
6414;SDS011;3240;48.790;9.210;2022-09-19T09:03:14;10.03;;;2.63;;
6414;SDS011;3240;48.790;9.210;2022-09-19T09:05:47;7.63;;;1.93;;
6414;SDS011;3240;48.790;9.210;2022-09-19T09:08:21;4.30;;;1.50;;
6414;SDS011;3240;48.790;9.210;2022-09-19T09:10:51;9.77;;;2.20;;
6414;SDS011;3240;48.790;9.210;2022-09-19T09:13:26;10.50;;;2.20;;
6414;SDS011;3240;48.790;9.210;2022-09-19T09:15:54;5.47;;;1.57;;
6414;SDS011;3240;48.790;9.210;2022-09-19T09:18:23;5.50;;;1.50;;
6414;SDS011;3240;48.790;9.210;2022-09-19T09:20:53;10.47;;;2.83;;
6414;SDS011;3240;48.790;9.210;2022-09-19T09:23:21;14.73;;;2.53;;
6414;SDS011;3240;48.790;9.210;2022-09-19T09:25:49;4.27;;;1.70;;
6414;SDS011;3240;48.790;9.210;2022-09-19T09:28:19;8.27;;;1.67;;
6414;SDS011;3240;48.790;9.210;2022-09-19T09:30:47;6.70;;;2.30;;
6414;SDS011;3240;48.790;9.210;2022-09-19T09:36:04;4.90;;;1.70;;
6414;SDS011;3240;48.790;9.210;2022-09-19T09:38:32;8.10;;;1.63;;
6414;SDS011;3240;48.790;9.210;2022-09-19T09:41:04;3.97;;;1.30;;
6414;SDS011;3240;48.790;9.210;2022-09-19T09:43:37;5.07;;;1.70;;
6414;SDS011;3240;48.790;9.210;2022-09-19T09:46:04;6.57;;;2.10;;
6414;SDS011;3240;48.790;9.210;2022-09-19T09:48:34;4.73;;;1.77;;
6414;SDS011;3240;48.790;9.210;2022-09-19T09:51:35;5.30;;;1.43;;
6414;SDS011;3240;48.790;9.210;2022-09-19T09:53:57;4.27;;;1.80;;
6414;SDS011;3240;48.790;9.210;2022-09-19T09:56:27;6.00;;;1.83;;
6414;SDS011;3240;48.790;9.210;2022-09-19T09:58:59;6.90;;;1.67;;
6414;SDS011;3240;48.790;9.210;2022-09-19T10:01:32;5.20;;;1.73;;
6414;SDS011;3240;48.790;9.210;2022-09-19T10:04:38;4.53;;;1.50;;
6414;SDS011;3240;48.790;9.210;2022-09-19T10:06:48;5.83;;;1.90;;
6414;SDS011;3240;48.790;9.210;2022-09-19T10:09:18;4.97;;;1.50;;
6414;SDS011;3240;48.790;9.210;2022-09-19T10:12:18;6.03;;;1.50;;
6414;SDS011;3240;48.790;9.210;2022-09-19T10:14:28;8.17;;;1.60;;
6414;SDS011;3240;48.790;9.210;2022-09-19T10:16:58;4.27;;;1.30;;
6414;SDS011;3240;48.790;9.210;2022-09-19T10:19:33;13.40;;;1.70;;
6414;SDS011;3240;48.790;9.210;2022-09-19T10:21:59;8.37;;;1.77;;
6414;SDS011;3240;48.790;9.210;2022-09-19T10:27:08;4.33;;;1.90;;
6414;SDS011;3240;48.790;9.210;2022-09-19T10:29:29;4.07;;;1.40;;
6414;SDS011;3240;48.790;9.210;2022-09-19T10:31:58;5.70;;;1.60;;
6414;SDS011;3240;48.790;9.210;2022-09-19T10:34:27;5.05;;;1.20;;
6414;SDS011;3240;48.790;9.210;2022-09-19T10:36:55;4.03;;;1.40;;
6414;SDS011;3240;48.790;9.210;2022-09-19T10:39:24;4.63;;;1.33;;
6414;SDS011;3240;48.790;9.210;2022-09-19T10:41:52;4.17;;;1.40;;
6414;SDS011;3240;48.790;9.210;2022-09-19T10:44:22;5.50;;;1.40;;
6414;SDS011;3240;48.790;9.210;2022-09-19T10:46:52;3.17;;;1.20;;
6414;SDS011;3240;48.790;9.210;2022-09-19T10:49:20;3.90;;;1.30;;
6414;SDS011;3240;48.790;9.210;2022-09-19T10:51:48;6.53;;;1.70;;
6414;SDS011;3240;48.790;9.210;2022-09-19T10:56:49;4.40;;;1.20;;
6414;SDS011;3240;48.790;9.210;2022-09-19T10:59:26;3.33;;;1.10;;
6414;SDS011;3240;48.790;9.210;2022-09-19T11:04:26;5.03;;;1.37;;
6414;SDS011;3240;48.790;9.210;2022-09-19T11:06:56;4.43;;;1.20;;
6414;SDS011;3240;48.790;9.210;2022-09-19T11:09:25;5.17;;;1.27;;
6414;SDS011;3240;48.790;9.210;2022-09-19T11:12:01;2.13;;;1.10;;
6414;SDS011;3240;48.790;9.210;2022-09-19T11:14:21;8.53;;;1.93;;
6414;SDS011;3240;48.790;9.210;2022-09-19T11:17:00;5.60;;;1.10;;
6414;SDS011;3240;48.790;9.210;2022-09-19T11:19:26;4.00;;;1.67;;
6414;SDS011;3240;48.790;9.210;2022-09-19T11:21:59;2.93;;;1.20;;
6414;SDS011;3240;48.790;9.210;2022-09-19T11:24:29;5.03;;;0.90;;
6414;SDS011;3240;48.790;9.210;2022-09-19T11:26:57;2.40;;;1.23;;
6414;SDS011;3240;48.790;9.210;2022-09-19T11:29:30;6.93;;;1.73;;
6414;SDS011;3240;48.790;9.210;2022-09-19T11:31:59;7.40;;;1.00;;
6414;SDS011;3240;48.790;9.210;2022-09-19T11:34:34;5.13;;;1.57;;
6414;SDS011;3240;48.790;9.210;2022-09-19T11:37:20;3.90;;;1.30;;
6414;SDS011;3240;48.790;9.210;2022-09-19T11:39:49;4.40;;;1.50;;
6414;SDS011;3240;48.790;9.210;2022-09-19T11:42:18;8.83;;;1.13;;
6414;SDS011;3240;48.790;9.210;2022-09-19T11:44:47;2.60;;;0.93;;
6414;SDS011;3240;48.790;9.210;2022-09-19T11:49:57;3.60;;;1.10;;
6414;SDS011;3240;48.790;9.210;2022-09-19T11:52:26;4.00;;;1.00;;
6414;SDS011;3240;48.790;9.210;2022-09-19T11:54:57;9.70;;;2.13;;
6414;SDS011;3240;48.790;9.210;2022-09-19T11:57:32;4.60;;;1.00;;
6414;SDS011;3240;48.790;9.210;2022-09-19T12:00:02;6.67;;;1.33;;
6414;SDS011;3240;48.790;9.210;2022-09-19T12:02:34;3.40;;;1.07;;
6414;SDS011;3240;48.790;9.210;2022-09-19T12:05:02;2.17;;;0.97;;
6414;SDS011;3240;48.790;9.210;2022-09-19T12:08:35;2.40;;;1.27;;
6414;SDS011;3240;48.790;9.210;2022-09-19T12:10:15;3.43;;;1.30;;
6414;SDS011;3240;48.790;9.210;2022-09-19T12:12:42;3.03;;;1.70;;
6414;SDS011;3240;48.790;9.210;2022-09-19T12:15:17;5.77;;;1.63;;
6414;SDS011;3240;48.790;9.210;2022-09-19T12:17:43;4.20;;;1.30;;
6414;SDS011;3240;48.790;9.210;2022-09-19T12:20:16;4.10;;;1.37;;
6414;SDS011;3240;48.790;9.210;2022-09-19T12:22:46;5.20;;;1.37;;
6414;SDS011;3240;48.790;9.210;2022-09-19T12:25:15;2.13;;;1.00;;
6414;SDS011;3240;48.790;9.210;2022-09-19T12:27:44;2.23;;;1.40;;
6414;SDS011;3240;48.790;9.210;2022-09-19T12:30:13;3.13;;;1.30;;
6414;SDS011;3240;48.790;9.210;2022-09-19T12:32:46;4.33;;;1.23;;
6414;SDS011;3240;48.790;9.210;2022-09-19T12:35:18;4.27;;;1.37;;
6414;SDS011;3240;48.790;9.210;2022-09-19T12:37:47;7.70;;;0.90;;
6414;SDS011;3240;48.790;9.210;2022-09-19T12:40:16;2.50;;;0.70;;
6414;SDS011;3240;48.790;9.210;2022-09-19T12:42:45;4.40;;;1.30;;
6414;SDS011;3240;48.790;9.210;2022-09-19T12:45:14;2.03;;;1.00;;
6414;SDS011;3240;48.790;9.210;2022-09-19T12:48:00;5.77;;;0.83;;
6414;SDS011;3240;48.790;9.210;2022-09-19T12:50:28;2.43;;;0.97;;
6414;SDS011;3240;48.790;9.210;2022-09-19T12:53:02;2.93;;;1.07;;
6414;SDS011;3240;48.790;9.210;2022-09-19T12:55:30;4.43;;;0.90;;
6414;SDS011;3240;48.790;9.210;2022-09-19T12:58:16;4.20;;;1.50;;
6414;SDS011;3240;48.790;9.210;2022-09-19T13:00:43;6.47;;;0.93;;
6414;SDS011;3240;48.790;9.210;2022-09-19T13:03:18;4.73;;;1.20;;
6414;SDS011;3240;48.790;9.210;2022-09-19T13:05:44;3.30;;;1.10;;
6414;SDS011;3240;48.790;9.210;2022-09-19T13:08:14;6.00;;;1.43;;
6414;SDS011;3240;48.790;9.210;2022-09-19T13:10:44;5.43;;;1.20;;
6414;SDS011;3240;48.790;9.210;2022-09-19T13:15:51;5.20;;;1.10;;
6414;SDS011;3240;48.790;9.210;2022-09-19T13:18:18;5.00;;;1.40;;
6414;SDS011;3240;48.790;9.210;2022-09-19T13:20:52;4.57;;;1.17;;
6414;SDS011;3240;48.790;9.210;2022-09-19T13:23:27;3.37;;;0.90;;
6414;SDS011;3240;48.790;9.210;2022-09-19T13:26:13;3.97;;;1.20;;
6414;SDS011;3240;48.790;9.210;2022-09-19T13:28:27;4.97;;;1.00;;
6414;SDS011;3240;48.790;9.210;2022-09-19T13:31:00;3.57;;;1.00;;
6414;SDS011;3240;48.790;9.210;2022-09-19T13:33:33;4.27;;;1.20;;
6414;SDS011;3240;48.790;9.210;2022-09-19T13:35:57;1.60;;;0.90;;
6414;SDS011;3240;48.790;9.210;2022-09-19T13:38:35;6.60;;;1.10;;
6414;SDS011;3240;48.790;9.210;2022-09-19T13:40:58;4.23;;;0.90;;
6414;SDS011;3240;48.790;9.210;2022-09-19T13:43:29;5.70;;;1.00;;
6414;SDS011;3240;48.790;9.210;2022-09-19T13:45:57;2.60;;;0.70;;
6414;SDS011;3240;48.790;9.210;2022-09-19T13:48:31;3.53;;;0.87;;
6414;SDS011;3240;48.790;9.210;2022-09-19T13:50:58;2.60;;;0.70;;
6414;SDS011;3240;48.790;9.210;2022-09-19T13:53:30;4.23;;;1.00;;
6414;SDS011;3240;48.790;9.210;2022-09-19T13:55:57;4.63;;;1.57;;
6414;SDS011;3240;48.790;9.210;2022-09-19T13:58:27;5.33;;;1.00;;
6414;SDS011;3240;48.790;9.210;2022-09-19T14:03:30;2.03;;;1.20;;
6414;SDS011;3240;48.790;9.210;2022-09-19T14:08:31;2.57;;;0.97;;
6414;SDS011;3240;48.790;9.210;2022-09-19T14:10:58;4.03;;;1.27;;
6414;SDS011;3240;48.790;9.210;2022-09-19T14:13:31;2.50;;;1.37;;
6414;SDS011;3240;48.790;9.210;2022-09-19T14:18:43;3.13;;;0.97;;
6414;SDS011;3240;48.790;9.210;2022-09-19T14:21:11;3.23;;;1.00;;
6414;SDS011;3240;48.790;9.210;2022-09-19T14:23:41;3.20;;;0.90;;
6414;SDS011;3240;48.790;9.210;2022-09-19T14:26:45;1.63;;;0.80;;
6414;SDS011;3240;48.790;9.210;2022-09-19T14:29:02;5.07;;;1.17;;
6414;SDS011;3240;48.790;9.210;2022-09-19T14:31:28;3.03;;;1.07;;
6414;SDS011;3240;48.790;9.210;2022-09-19T14:34:01;1.00;;;0.70;;
6414;SDS011;3240;48.790;9.210;2022-09-19T14:36:40;0.97;;;0.60;;
6414;SDS011;3240;48.790;9.210;2022-09-19T14:42:00;2.47;;;0.70;;
6414;SDS011;3240;48.790;9.210;2022-09-19T14:44:39;2.70;;;0.60;;
6414;SDS011;3240;48.790;9.210;2022-09-19T14:47:02;1.80;;;0.60;;
6414;SDS011;3240;48.790;9.210;2022-09-19T14:49:31;1.50;;;0.70;;
6414;SDS011;3240;48.790;9.210;2022-09-19T14:52:03;1.53;;;0.70;;
6414;SDS011;3240;48.790;9.210;2022-09-19T14:54:34;1.90;;;1.00;;
6414;SDS011;3240;48.790;9.210;2022-09-19T14:57:00;1.93;;;0.70;;
6414;SDS011;3240;48.790;9.210;2022-09-19T14:59:29;1.10;;;0.70;;
6414;SDS011;3240;48.790;9.210;2022-09-19T15:02:05;1.47;;;0.80;;
6414;SDS011;3240;48.790;9.210;2022-09-19T15:04:25;1.70;;;0.80;;
6414;SDS011;3240;48.790;9.210;2022-09-19T15:06:56;3.20;;;1.27;;
6414;SDS011;3240;48.790;9.210;2022-09-19T15:09:26;2.20;;;1.10;;
6414;SDS011;3240;48.790;9.210;2022-09-19T15:11:54;3.77;;;1.13;;
6414;SDS011;3240;48.790;9.210;2022-09-19T15:14:22;2.93;;;0.93;;
6414;SDS011;3240;48.790;9.210;2022-09-19T15:16:50;4.03;;;1.00;;
6414;SDS011;3240;48.790;9.210;2022-09-19T15:19:18;2.60;;;0.83;;
6414;SDS011;3240;48.790;9.210;2022-09-19T15:21:46;3.83;;;1.03;;
6414;SDS011;3240;48.790;9.210;2022-09-19T15:24:14;8.10;;;1.57;;
6414;SDS011;3240;48.790;9.210;2022-09-19T15:26:43;9.90;;;1.30;;
6414;SDS011;3240;48.790;9.210;2022-09-19T15:31:44;6.73;;;1.20;;
6414;SDS011;3240;48.790;9.210;2022-09-19T15:34:15;2.80;;;1.30;;
6414;SDS011;3240;48.790;9.210;2022-09-19T15:36:40;3.10;;;1.03;;
6414;SDS011;3240;48.790;9.210;2022-09-19T15:39:09;2.13;;;1.50;;
6414;SDS011;3240;48.790;9.210;2022-09-19T15:41:37;4.30;;;1.17;;
6414;SDS011;3240;48.790;9.210;2022-09-19T15:44:05;3.13;;;1.03;;
6414;SDS011;3240;48.790;9.210;2022-09-19T15:46:36;2.50;;;0.97;;
6414;SDS011;3240;48.790;9.210;2022-09-19T15:49:03;4.90;;;1.47;;
6414;SDS011;3240;48.790;9.210;2022-09-19T15:51:32;3.10;;;1.10;;
6414;SDS011;3240;48.790;9.210;2022-09-19T15:54:00;3.83;;;1.20;;
6414;SDS011;3240;48.790;9.210;2022-09-19T15:56:39;9.90;;;1.90;;
6414;SDS011;3240;48.790;9.210;2022-09-19T15:58:57;2.20;;;1.30;;
6414;SDS011;3240;48.790;9.210;2022-09-19T16:01:26;1.93;;;1.10;;
6414;SDS011;3240;48.790;9.210;2022-09-19T16:06:33;2.37;;;1.23;;
6414;SDS011;3240;48.790;9.210;2022-09-19T16:09:06;4.80;;;1.40;;
6414;SDS011;3240;48.790;9.210;2022-09-19T16:11:35;2.33;;;1.10;;
6414;SDS011;3240;48.790;9.210;2022-09-19T16:14:05;4.82;;;2.20;;